createdAt,value
2023-04-02T00:01:05.740Z,93958
2023-04-02T00:04:31.044Z,93957
2023-04-02T00:07:56.316Z,93963
2023-04-02T00:11:21.641Z,93959
2023-04-02T00:14:46.930Z,93968
2023-04-02T00:18:12.215Z,93979
2023-04-02T00:21:38.788Z,93981
2023-04-02T00:25:02.686Z,93982
2023-04-02T00:28:27.924Z,93990
2023-04-02T00:31:53.318Z,93989
2023-04-02T00:35:18.433Z,93996
2023-04-02T00:38:43.737Z,93996
2023-04-02T00:42:08.983Z,93999
2023-04-02T00:45:34.408Z,94004
2023-04-02T00:48:59.558Z,94004
2023-04-02T00:52:24.755Z,94009
2023-04-02T00:55:50.014Z,94010
2023-04-02T00:59:15.281Z,94015
2023-04-02T01:02:40.625Z,94018
2023-04-02T01:06:05.874Z,94018
2023-04-02T01:09:31.115Z,94023
2023-04-02T01:12:56.384Z,94026
2023-04-02T01:16:21.682Z,94026
2023-04-02T01:19:46.903Z,94032
2023-04-02T01:23:12.196Z,94037
2023-04-02T01:26:37.402Z,94041
2023-04-02T01:30:02.678Z,94050
2023-04-02T01:33:27.920Z,94046
2023-04-02T01:36:53.165Z,94056
2023-04-02T01:40:18.505Z,94065
2023-04-02T01:43:43.789Z,94075
2023-04-02T01:47:09.120Z,94081
2023-04-02T01:50:34.444Z,94088
2023-04-02T01:53:59.705Z,94097
2023-04-02T01:57:25.053Z,94099
2023-04-02T02:00:50.302Z,94103
2023-04-02T02:04:15.560Z,94110
2023-04-02T02:07:40.866Z,94115
2023-04-02T02:11:06.135Z,94124
2023-04-02T02:14:31.407Z,94132
2023-04-02T02:17:56.706Z,94133
2023-04-02T02:21:21.940Z,94144
2023-04-02T02:24:47.226Z,94149
2023-04-02T02:28:12.497Z,94156
2023-04-02T02:31:37.802Z,94165
2023-04-02T02:35:03.031Z,94168
2023-04-02T02:38:28.304Z,94178
2023-04-02T02:41:53.553Z,94184
2023-04-02T02:45:18.815Z,94188
2023-04-02T02:48:44.116Z,94196
2023-04-02T02:52:09.372Z,94200
2023-04-02T02:55:34.769Z,94206
2023-04-02T02:58:59.882Z,94214
2023-04-02T03:02:25.184Z,94216
2023-04-02T03:05:50.353Z,94224
2023-04-02T03:09:15.577Z,94234
2023-04-02T03:12:40.832Z,94235
2023-04-02T03:16:06.180Z,94242
2023-04-02T03:19:31.331Z,94251
2023-04-02T03:22:56.636Z,94252
2023-04-02T03:26:21.822Z,94262
2023-04-02T03:29:47.064Z,94271
2023-04-02T03:33:12.294Z,94271
2023-04-02T03:36:37.544Z,94281
2023-04-02T03:40:02.845Z,94281
2023-04-02T03:43:28.062Z,94289
2023-04-02T03:46:53.344Z,94294
2023-04-02T03:50:18.553Z,94302
2023-04-02T03:53:43.839Z,94309
2023-04-02T03:57:09.084Z,94316
2023-04-02T04:00:34.284Z,94321
2023-04-02T04:03:59.595Z,94330
2023-04-02T04:07:24.812Z,94338
2023-04-02T04:10:50.110Z,94337
2023-04-02T04:14:15.356Z,94350
2023-04-02T04:17:40.629Z,94352
2023-04-02T04:21:05.885Z,94363
2023-04-02T04:24:31.128Z,94373
2023-04-02T04:27:56.398Z,94379
2023-04-02T04:31:23.421Z,94381
2023-04-02T04:34:46.988Z,94389
2023-04-02T04:38:12.170Z,94402
2023-04-02T04:41:37.415Z,94395
2023-04-02T04:45:02.670Z,94408
2023-04-02T04:48:27.958Z,94418
2023-04-02T04:51:53.195Z,94431
2023-04-02T04:55:18.445Z,94439
2023-04-02T04:58:43.717Z,94446
2023-04-02T05:02:08.958Z,94444
2023-04-02T05:05:34.448Z,94459
2023-04-02T05:08:59.483Z,94460
2023-04-02T05:12:24.691Z,94476
2023-04-02T05:15:49.992Z,94482
2023-04-02T05:19:15.216Z,94480
2023-04-02T05:22:41.414Z,94490
2023-04-02T05:26:05.739Z,94495
2023-04-02T05:29:30.990Z,94502
2023-04-02T05:32:56.382Z,94511
2023-04-02T05:36:21.583Z,94508
2023-04-02T05:39:46.898Z,94522
2023-04-02T05:43:12.169Z,94525
2023-04-02T05:46:37.559Z,94530
2023-04-02T05:50:02.758Z,94538
2023-04-02T05:53:27.991Z,94538
2023-04-02T05:56:53.284Z,94548
2023-04-02T06:00:18.528Z,94549
2023-04-02T06:03:43.838Z,94551
2023-04-02T06:07:09.032Z,94557
2023-04-02T06:10:34.288Z,94564
2023-04-02T06:13:59.574Z,94570
2023-04-02T06:17:24.832Z,94577
2023-04-02T06:20:50.057Z,94585
2023-04-02T06:24:15.374Z,94590
2023-04-02T06:27:40.568Z,94597
2023-04-02T06:31:05.884Z,94605
2023-04-02T06:34:31.080Z,94606
2023-04-02T06:37:56.292Z,94613
2023-04-02T06:41:21.608Z,94620
2023-04-02T06:44:46.822Z,94628
2023-04-02T06:48:12.150Z,94629
2023-04-02T06:51:37.346Z,94642
2023-04-02T06:55:02.586Z,94651
2023-04-02T06:58:27.831Z,94657
2023-04-02T07:01:53.130Z,94668
2023-04-02T07:05:18.344Z,94675
2023-04-02T07:08:43.586Z,94686
2023-04-02T07:12:08.815Z,94688
2023-04-02T07:15:34.198Z,94699
2023-04-02T07:18:59.361Z,94702
2023-04-02T07:22:24.650Z,94705
2023-04-02T07:25:49.921Z,94701
2023-04-02T07:29:15.182Z,94709
2023-04-02T07:32:40.464Z,94716
2023-04-02T07:36:05.740Z,94725
2023-04-02T07:39:31.013Z,94738
2023-04-02T07:42:59.619Z,94744
2023-04-02T07:46:24.915Z,94749
2023-04-02T07:49:50.145Z,94756
2023-04-02T07:53:15.443Z,94757
2023-04-02T07:56:40.706Z,94769
2023-04-02T08:00:05.934Z,94772
2023-04-02T08:03:31.941Z,94780
2023-04-02T08:06:57.076Z,94789
2023-04-02T08:10:22.334Z,94786
2023-04-02T08:13:47.622Z,94801
2023-04-02T08:17:12.833Z,94803
2023-04-02T08:20:38.141Z,94808
2023-04-02T08:24:03.387Z,94811
2023-04-02T08:27:28.608Z,94820
2023-04-02T08:30:53.955Z,94819
2023-04-02T08:34:19.121Z,94833
2023-04-02T08:37:44.358Z,94834
2023-04-02T08:41:09.557Z,94850
2023-04-02T08:44:34.820Z,94848
2023-04-02T08:48:00.286Z,94849
2023-04-02T08:51:25.329Z,94859
2023-04-02T08:54:50.568Z,94870
2023-04-02T08:58:15.792Z,94876
2023-04-02T09:01:41.044Z,94883
2023-04-02T09:05:06.432Z,94886
2023-04-02T09:08:31.490Z,94893
2023-04-02T09:11:56.727Z,94906
2023-04-02T09:15:21.952Z,94912
2023-04-02T09:18:47.180Z,94910
2023-04-02T09:22:12.457Z,94910
2023-04-02T09:25:37.822Z,94916
2023-04-02T09:29:02.954Z,94930
2023-04-02T09:32:28.191Z,94932
2023-04-02T09:35:53.409Z,94941
2023-04-02T09:39:18.683Z,94936
2023-04-02T09:42:43.894Z,94951
2023-04-02T09:46:09.166Z,94957
2023-04-02T09:49:34.386Z,94962
2023-04-02T09:52:59.624Z,94968
2023-04-02T09:56:24.892Z,94969
2023-04-02T09:59:50.085Z,94982
2023-04-02T10:03:15.299Z,94987
2023-04-02T10:06:40.500Z,94998
2023-04-02T10:10:05.781Z,95002
2023-04-02T10:13:31.018Z,95008
2023-04-02T10:16:56.299Z,95014
2023-04-02T10:20:21.447Z,95011
2023-04-02T10:23:46.699Z,95023
2023-04-02T10:27:11.926Z,95032
2023-04-02T10:30:37.213Z,95035
2023-04-02T10:34:02.398Z,95041
2023-04-02T10:37:27.606Z,95045
2023-04-02T10:40:53.376Z,95051
2023-04-02T10:44:20.413Z,95062
2023-04-02T10:47:43.373Z,95060
2023-04-02T10:51:08.517Z,95059
2023-04-02T10:54:33.736Z,95071
2023-04-02T10:57:58.948Z,95084
2023-04-02T11:01:24.227Z,95086
2023-04-02T11:04:51.703Z,95090
2023-04-02T11:08:16.928Z,95098
2023-04-02T11:11:42.151Z,95103
2023-04-02T11:15:07.389Z,95115
2023-04-02T11:18:32.734Z,95122
2023-04-02T11:21:59.837Z,95118
2023-04-02T11:25:23.179Z,95124
2023-04-02T11:28:48.402Z,95131
2023-04-02T11:32:13.632Z,95133
2023-04-02T11:35:39.165Z,95134
2023-04-02T11:39:10.940Z,95126
2023-04-02T11:42:29.322Z,95137
2023-04-02T11:45:54.844Z,95148
2023-04-02T11:49:19.823Z,95156
2023-04-02T11:52:45.060Z,95155
2023-04-02T11:56:10.352Z,95158
2023-04-02T11:59:35.700Z,95166
2023-04-02T12:03:01.059Z,95162
2023-04-02T12:06:26.222Z,95160
2023-04-02T12:09:51.473Z,95172
2023-04-02T12:13:16.722Z,95185
2023-04-02T12:16:42.027Z,95190
2023-04-02T12:20:07.267Z,95194
2023-04-02T12:23:32.483Z,95201
2023-04-02T12:26:57.727Z,95204
2023-04-02T12:30:22.989Z,95205
2023-04-02T12:33:48.191Z,95209
2023-04-02T12:37:13.421Z,95209
2023-04-02T12:40:38.779Z,95213
2023-04-02T12:44:03.843Z,95222
2023-04-02T12:47:29.122Z,95214
2023-04-02T12:50:54.299Z,95217
2023-04-02T12:54:19.521Z,95226
2023-04-02T12:57:44.730Z,95236
2023-04-02T13:01:09.961Z,95227
2023-04-02T13:04:35.235Z,95227
2023-04-02T13:08:00.464Z,95235
2023-04-02T13:11:25.642Z,95243
2023-04-02T13:14:50.877Z,95238
2023-04-02T13:18:16.092Z,95246
2023-04-02T13:21:41.365Z,95250
2023-04-02T13:25:06.580Z,95265
2023-04-02T13:28:31.808Z,95263
2023-04-02T13:31:57.103Z,95262
2023-04-02T13:35:22.294Z,95264
2023-04-02T13:38:47.540Z,95270
2023-04-02T13:42:12.742Z,95277
2023-04-02T13:45:38.025Z,95280
2023-04-02T13:49:03.230Z,95281
2023-04-02T13:52:28.436Z,95286
2023-04-02T13:55:53.679Z,95292
2023-04-02T13:59:18.892Z,95293
2023-04-02T14:02:44.124Z,95296
2023-04-02T14:06:09.362Z,95301
2023-04-02T14:09:34.602Z,95305
2023-04-02T14:12:59.899Z,95308
2023-04-02T14:16:25.179Z,95312
2023-04-02T14:19:50.508Z,95320
2023-04-02T14:23:15.793Z,95330
2023-04-02T14:26:41.059Z,95337
2023-04-02T14:30:06.380Z,95330
2023-04-02T14:33:31.608Z,95333
2023-04-02T14:36:56.911Z,95336
2023-04-02T14:40:22.165Z,95341
2023-04-02T14:43:47.455Z,95342
2023-04-02T14:47:12.743Z,95346
2023-04-02T14:50:38.061Z,95351
2023-04-02T14:54:03.159Z,95355
2023-04-02T14:57:28.415Z,95357
2023-04-02T15:00:53.616Z,95360
2023-04-02T15:04:18.856Z,95366
2023-04-02T15:42:20.415Z,95386
2023-04-02T15:45:45.632Z,95395
2023-04-02T15:49:10.798Z,95401
2023-04-02T15:52:36.003Z,95409
2023-04-02T15:56:01.210Z,95411
2023-04-02T15:59:26.460Z,95404
2023-04-02T16:02:51.698Z,95409
2023-04-02T16:06:16.874Z,95407
2023-04-02T16:09:42.111Z,95421
2023-04-02T16:13:07.335Z,95417
2023-04-02T16:16:32.612Z,95422
2023-04-02T16:19:57.792Z,95432
2023-04-02T16:23:22.999Z,95431
2023-04-02T16:26:48.585Z,95429
2023-04-02T16:30:13.490Z,95437
2023-04-02T16:33:38.891Z,95438
2023-04-02T16:37:04.183Z,95444
2023-04-02T16:40:29.400Z,95445
2023-04-02T16:43:54.604Z,95448
2023-04-02T16:47:19.870Z,95454
2023-04-02T16:50:45.229Z,95467
2023-04-02T16:54:10.300Z,95465
2023-04-02T16:57:35.563Z,95467
2023-04-02T17:01:00.813Z,95478
2023-04-02T17:04:26.082Z,95476
2023-04-02T17:07:51.383Z,95482
2023-04-02T17:11:16.632Z,95493
2023-04-02T17:14:41.960Z,95496
2023-04-02T17:18:07.410Z,95496
2023-04-02T17:21:32.698Z,95493
2023-04-02T17:24:58.005Z,95496
2023-04-02T17:28:23.357Z,95500
2023-04-02T17:31:48.719Z,95511
2023-04-02T17:35:13.966Z,95519
2023-04-02T17:38:39.234Z,95519
2023-04-02T17:42:04.468Z,95525
2023-04-02T17:45:29.803Z,95525
2023-04-02T17:48:55.021Z,95529
2023-04-02T17:52:20.325Z,95544
2023-04-02T17:55:45.579Z,95549
2023-04-02T17:59:10.812Z,95538
2023-04-02T18:02:36.085Z,95553
2023-04-02T18:06:01.284Z,95552
2023-04-02T18:09:26.526Z,95551
2023-04-02T18:12:51.815Z,95555
2023-04-02T18:16:17.049Z,95558
2023-04-02T18:19:42.252Z,95555
2023-04-02T18:23:07.516Z,95562
2023-04-02T18:26:32.756Z,95566
2023-04-02T18:29:58.064Z,95575
2023-04-02T18:33:23.334Z,95574
2023-04-02T18:36:48.570Z,95586
2023-04-02T18:40:13.831Z,95597
2023-04-02T18:43:39.059Z,95597
2023-04-02T18:47:04.279Z,95598
2023-04-02T18:50:29.536Z,95600
2023-04-02T18:53:54.788Z,95606
2023-04-02T18:57:20.097Z,95617
2023-04-02T19:00:49.436Z,95616
2023-04-02T19:04:14.744Z,95618
2023-04-02T19:07:40.029Z,95626
2023-04-02T19:11:05.331Z,95630
2023-04-02T19:14:30.678Z,95631
2023-04-02T19:17:55.970Z,95638
2023-04-02T19:21:21.243Z,95642
2023-04-02T19:24:46.561Z,95643
2023-04-02T19:28:11.807Z,95648
2023-04-02T19:31:37.164Z,95650
2023-04-02T19:35:02.453Z,95651
2023-04-02T19:38:27.726Z,95658
2023-04-02T19:41:53.054Z,95663
2023-04-02T19:45:18.314Z,95671
2023-04-02T19:48:43.655Z,95676
2023-04-02T19:52:08.938Z,95680
2023-04-02T19:55:34.508Z,95671
2023-04-02T19:59:02.365Z,95682
2023-04-02T20:02:24.855Z,95671
2023-04-02T20:05:50.126Z,95673
2023-04-02T20:09:15.409Z,95675
2023-04-02T20:12:40.690Z,95674
2023-04-02T20:16:06.063Z,95680
2023-04-02T20:19:31.270Z,95679
2023-04-02T20:22:56.544Z,95684
2023-04-02T20:26:21.869Z,95689
2023-04-02T20:29:47.116Z,95692
2023-04-02T20:33:12.556Z,95692
2023-04-02T20:36:37.711Z,95700
2023-04-02T20:40:03.024Z,95705
2023-04-02T20:43:28.312Z,95705
2023-04-02T20:46:53.623Z,95712
2023-04-02T20:50:18.989Z,95712
2023-04-02T20:53:44.302Z,95709
2023-04-02T20:57:09.622Z,95716
2023-04-02T21:00:35.097Z,95718
2023-04-02T21:04:00.271Z,95719
2023-04-02T21:07:25.572Z,95716
2023-04-02T21:10:50.855Z,95722
2023-04-02T21:14:16.143Z,95729
2023-04-02T21:17:41.498Z,95719
2023-04-02T21:21:06.752Z,95726
2023-04-02T21:24:32.095Z,95731
2023-04-02T21:27:57.341Z,95732
2023-04-02T21:31:22.660Z,95725
2023-04-02T21:34:47.940Z,95728
2023-04-02T21:38:13.245Z,95726
2023-04-02T21:41:38.587Z,95733
2023-04-02T21:45:03.917Z,95731
2023-04-02T21:48:29.239Z,95735
2023-04-02T21:51:54.530Z,95747
2023-04-02T21:55:19.865Z,95741
2023-04-02T21:58:45.251Z,95739
2023-04-02T22:02:10.553Z,95744
2023-04-02T22:05:36.014Z,95748
2023-04-02T22:09:01.185Z,95744
2023-04-02T22:12:26.521Z,95743
2023-04-02T22:15:51.853Z,95747
2023-04-02T22:19:17.150Z,95746
2023-04-02T22:22:42.394Z,95752
2023-04-02T22:26:07.697Z,95751
2023-04-02T22:29:32.976Z,95754
2023-04-02T22:32:58.343Z,95759
2023-04-02T22:36:23.542Z,95757
2023-04-02T22:39:48.809Z,95760
2023-04-02T22:43:14.059Z,95760
2023-04-02T22:46:40.086Z,95767
2023-04-02T22:50:05.351Z,95766
2023-04-02T22:53:30.648Z,95770
2023-04-02T22:56:55.957Z,95772
2023-04-02T23:00:21.293Z,95771
2023-04-02T23:03:46.591Z,95771
2023-04-02T23:07:11.868Z,95778
2023-04-02T23:10:37.345Z,95774
2023-04-02T23:14:02.472Z,95773
2023-04-02T23:17:27.872Z,95779
2023-04-02T23:20:53.126Z,95781
2023-04-02T23:24:18.498Z,95781
2023-04-02T23:27:43.764Z,95778
2023-04-02T23:31:09.124Z,95774
2023-04-02T23:34:34.350Z,95778
2023-04-02T23:37:59.654Z,95780
2023-04-02T23:41:25.002Z,95780
2023-04-02T23:44:50.240Z,95778
2023-04-02T23:48:15.486Z,95772
2023-04-02T23:51:40.819Z,95770
2023-04-02T23:55:06.038Z,95773
2023-04-02T23:58:31.313Z,95775
